sensor_id;sensor_type;location;lat;lon;timestamp;pressure;altitude;pressure_sealevel;temperature;humidity
75886;BME280;64561;44.018;10.144;2023-07-30T00:00:12;101373.53;;;23.96;77.45
75886;BME280;64561;44.018;10.144;2023-07-30T00:02:39;101366.63;;;23.93;77.25
75886;BME280;64561;44.018;10.144;2023-07-30T00:05:07;101359.63;;;23.94;77.76
75886;BME280;64561;44.018;10.144;2023-07-30T00:07:34;101363.03;;;23.98;77.67
75886;BME280;64561;44.018;10.144;2023-07-30T00:10:02;101349.94;;;23.99;77.32
75886;BME280;64561;44.018;10.144;2023-07-30T00:12:31;101357.94;;;23.93;77.29
75886;BME280;64561;44.018;10.144;2023-07-30T00:14:58;101368.44;;;23.90;77.50
75886;BME280;64561;44.018;10.144;2023-07-30T00:17:26;101370.28;;;23.86;77.40
75886;BME280;64561;44.018;10.144;2023-07-30T00:19:53;101373.06;;;23.79;77.06
75886;BME280;64561;44.018;10.144;2023-07-30T00:22:20;101363.53;;;23.76;77.62
75886;BME280;64561;44.018;10.144;2023-07-30T00:24:50;101374.75;;;23.80;77.78
75886;BME280;64561;44.018;10.144;2023-07-30T00:27:17;101371.22;;;23.82;77.80
75886;BME280;64561;44.018;10.144;2023-07-30T00:29:48;101369.38;;;23.87;77.33
75886;BME280;64561;44.018;10.144;2023-07-30T00:32:15;101358.06;;;23.87;77.72
75886;BME280;64561;44.018;10.144;2023-07-30T00:34:46;101350.16;;;23.90;77.68
75886;BME280;64561;44.018;10.144;2023-07-30T00:37:14;101321.41;;;23.90;77.94
75886;BME280;64561;44.018;10.144;2023-07-30T00:39:41;101306.53;;;23.92;77.98
75886;BME280;64561;44.018;10.144;2023-07-30T00:42:08;101290.78;;;23.95;78.04
75886;BME280;64561;44.018;10.144;2023-07-30T00:44:35;101289.81;;;23.98;77.72
75886;BME280;64561;44.018;10.144;2023-07-30T00:47:02;101266.28;;;23.99;76.97
75886;BME280;64561;44.018;10.144;2023-07-30T00:49:30;101270.59;;;24.00;76.05
75886;BME280;64561;44.018;10.144;2023-07-30T00:51:57;101254.88;;;24.02;75.50
75886;BME280;64561;44.018;10.144;2023-07-30T00:54:25;101237.34;;;24.05;74.87
75886;BME280;64561;44.018;10.144;2023-07-30T00:56:53;101239.06;;;24.06;73.86
75886;BME280;64561;44.018;10.144;2023-07-30T00:59:20;101259.19;;;24.04;72.82
75886;BME280;64561;44.018;10.144;2023-07-30T01:01:51;101253.19;;;23.99;71.91
75886;BME280;64561;44.018;10.144;2023-07-30T01:04:18;101254.97;;;23.99;71.82
75886;BME280;64561;44.018;10.144;2023-07-30T01:06:46;101263.75;;;23.94;71.15
75886;BME280;64561;44.018;10.144;2023-07-30T01:09:13;101269.22;;;23.85;71.34
75886;BME280;64561;44.018;10.144;2023-07-30T01:11:41;101280.56;;;23.86;71.97
75886;BME280;64561;44.018;10.144;2023-07-30T01:14:09;101274.44;;;23.85;72.52
75886;BME280;64561;44.018;10.144;2023-07-30T01:16:37;101272.72;;;23.86;73.23
75886;BME280;64561;44.018;10.144;2023-07-30T01:19:05;101269.97;;;23.90;73.48
75886;BME280;64561;44.018;10.144;2023-07-30T01:21:37;101278.59;;;23.94;73.99
75886;BME280;64561;44.018;10.144;2023-07-30T01:24:04;101274.22;;;23.94;73.93
75886;BME280;64561;44.018;10.144;2023-07-30T01:26:49;101276.91;;;23.91;73.92
75886;BME280;64561;44.018;10.144;2023-07-30T01:29:22;101287.44;;;23.88;73.33
75886;BME280;64561;44.018;10.144;2023-07-30T01:31:56;101296.22;;;23.86;73.21
75886;BME280;64561;44.018;10.144;2023-07-30T01:34:27;101305.16;;;23.77;71.72
75886;BME280;64561;44.018;10.144;2023-07-30T01:36:55;101299.88;;;23.79;71.81
75886;BME280;64561;44.018;10.144;2023-07-30T01:39:25;101296.31;;;23.83;72.51
75886;BME280;64561;44.018;10.144;2023-07-30T01:41:55;101284.91;;;23.85;73.16
75886;BME280;64561;44.018;10.144;2023-07-30T01:44:23;101270.88;;;23.88;73.09
75886;BME280;64561;44.018;10.144;2023-07-30T01:46:49;101274.34;;;23.88;73.06
75886;BME280;64561;44.018;10.144;2023-07-30T01:49:17;101270.94;;;23.86;72.89
75886;BME280;64561;44.018;10.144;2023-07-30T01:51:44;101283.16;;;23.86;73.23
75886;BME280;64561;44.018;10.144;2023-07-30T01:54:11;101296.31;;;23.83;73.24
75886;BME280;64561;44.018;10.144;2023-07-30T01:56:39;101309.50;;;23.77;72.98
75886;BME280;64561;44.018;10.144;2023-07-30T01:59:06;101310.53;;;23.69;73.00
75886;BME280;64561;44.018;10.144;2023-07-30T02:01:33;101310.53;;;23.69;74.26
75886;BME280;64561;44.018;10.144;2023-07-30T02:04:00;101317.44;;;23.72;73.82
75886;BME280;64561;44.018;10.144;2023-07-30T02:06:27;101313.88;;;23.76;74.07
75886;BME280;64561;44.018;10.144;2023-07-30T02:08:54;101325.00;;;23.84;74.66
75886;BME280;64561;44.018;10.144;2023-07-30T02:11:22;101316.16;;;23.90;75.15
75886;BME280;64561;44.018;10.144;2023-07-30T02:13:49;101308.25;;;23.93;74.86
75886;BME280;64561;44.018;10.144;2023-07-30T02:16:16;101304.72;;;23.94;75.11
75886;BME280;64561;44.018;10.144;2023-07-30T02:18:44;101316.88;;;23.96;75.17
75886;BME280;64561;44.018;10.144;2023-07-30T02:21:11;101316.94;;;23.95;75.09
75886;BME280;64561;44.018;10.144;2023-07-30T02:23:39;101309.19;;;23.90;74.59
75886;BME280;64561;44.018;10.144;2023-07-30T02:26:06;101309.25;;;23.87;74.16
75886;BME280;64561;44.018;10.144;2023-07-30T02:28:33;101305.84;;;23.84;74.64
75886;BME280;64561;44.018;10.144;2023-07-30T02:31:00;101299.66;;;23.88;74.56
75886;BME280;64561;44.018;10.144;2023-07-30T02:33:27;101300.44;;;23.91;75.01
75886;BME280;64561;44.018;10.144;2023-07-30T02:35:55;101291.59;;;23.97;74.73
75886;BME280;64561;44.018;10.144;2023-07-30T02:38:22;101281.97;;;23.99;75.10
75886;BME280;64561;44.018;10.144;2023-07-30T02:40:49;101278.44;;;24.00;74.96
75886;BME280;64561;44.018;10.144;2023-07-30T02:43:16;101274.03;;;24.02;74.92
75886;BME280;64561;44.018;10.144;2023-07-30T02:45:47;101270.50;;;24.05;74.37
75886;BME280;64561;44.018;10.144;2023-07-30T02:48:14;101273.91;;;24.07;73.99
75886;BME280;64561;44.018;10.144;2023-07-30T02:50:41;101272.28;;;24.03;74.62
75886;BME280;64561;44.018;10.144;2023-07-30T02:53:08;101283.50;;;24.08;74.98
75886;BME280;64561;44.018;10.144;2023-07-30T02:55:35;101275.72;;;24.05;75.40
75886;BME280;64561;44.018;10.144;2023-07-30T02:58:03;101280.03;;;24.07;75.64
75886;BME280;64561;44.018;10.144;2023-07-30T03:00:30;101277.41;;;24.07;75.94
75886;BME280;64561;44.018;10.144;2023-07-30T03:02:57;101280.81;;;24.09;75.91
75886;BME280;64561;44.018;10.144;2023-07-30T03:05:26;101269.63;;;24.04;75.83
75886;BME280;64561;44.018;10.144;2023-07-30T03:07:54;101273.09;;;24.05;75.81
75886;BME280;64561;44.018;10.144;2023-07-30T03:10:21;101277.41;;;24.07;75.97
75886;BME280;64561;44.018;10.144;2023-07-30T03:12:51;101266.13;;;24.05;75.95
75886;BME280;64561;44.018;10.144;2023-07-30T03:15:29;101265.25;;;24.05;76.09
75886;BME280;64561;44.018;10.144;2023-07-30T03:17:56;101280.03;;;24.07;76.28
75886;BME280;64561;44.018;10.144;2023-07-30T03:20:23;101267.03;;;24.04;76.43
75886;BME280;64561;44.018;10.144;2023-07-30T03:22:50;101250.72;;;23.93;76.29
75886;BME280;64561;44.018;10.144;2023-07-30T03:25:17;101270.56;;;24.02;75.92
75886;BME280;64561;44.018;10.144;2023-07-30T03:27:48;101269.78;;;23.98;75.50
75886;BME280;64561;44.018;10.144;2023-07-30T03:30:15;101275.03;;;23.98;75.22
75886;BME280;64561;44.018;10.144;2023-07-30T03:32:42;101268.06;;;23.97;75.62
75886;BME280;64561;44.018;10.144;2023-07-30T03:35:09;101284.59;;;23.98;75.46
75886;BME280;64561;44.018;10.144;2023-07-30T03:37:36;101271.81;;;23.87;75.50
75886;BME280;64561;44.018;10.144;2023-07-30T03:40:05;101284.78;;;23.90;75.63
75886;BME280;64561;44.018;10.144;2023-07-30T03:42:32;101287.00;;;23.71;72.83
75886;BME280;64561;44.018;10.144;2023-07-30T03:44:59;101293.94;;;23.70;72.30
75886;BME280;64561;44.018;10.144;2023-07-30T03:47:30;101292.16;;;23.72;73.42
75886;BME280;64561;44.018;10.144;2023-07-30T03:49:57;101285.97;;;23.77;73.04
75886;BME280;64561;44.018;10.144;2023-07-30T03:52:25;101278.06;;;23.80;72.55
75886;BME280;64561;44.018;10.144;2023-07-30T03:54:52;101277.13;;;23.82;72.44
75886;BME280;64561;44.018;10.144;2023-07-30T03:57:19;101269.28;;;23.82;72.15
75886;BME280;64561;44.018;10.144;2023-07-30T03:59:47;101261.41;;;23.84;72.43
75886;BME280;64561;44.018;10.144;2023-07-30T04:02:14;101263.19;;;23.83;72.24
75886;BME280;64561;44.018;10.144;2023-07-30T04:04:43;101268.41;;;23.83;72.64
75886;BME280;64561;44.018;10.144;2023-07-30T04:07:15;101260.56;;;23.83;73.06
75886;BME280;64561;44.018;10.144;2023-07-30T04:09:43;101262.31;;;23.83;73.49
75886;BME280;64561;44.018;10.144;2023-07-30T04:12:16;101258.91;;;23.79;72.98
75886;BME280;64561;44.018;10.144;2023-07-30T04:14:43;101265.88;;;23.79;73.65
75886;BME280;64561;44.018;10.144;2023-07-30T04:17:11;101261.56;;;23.78;73.91
75886;BME280;64561;44.018;10.144;2023-07-30T04:19:38;101266.72;;;23.81;73.62
75886;BME280;64561;44.018;10.144;2023-07-30T04:22:05;101275.41;;;23.81;73.70
75886;BME280;64561;44.018;10.144;2023-07-30T04:24:32;101277.13;;;23.82;73.59
75886;BME280;64561;44.018;10.144;2023-07-30T04:27:00;101261.50;;;23.81;73.63
75886;BME280;64561;44.018;10.144;2023-07-30T04:29:27;101267.56;;;23.83;73.28
75886;BME280;64561;44.018;10.144;2023-07-30T04:31:55;101264.06;;;23.82;73.85
75886;BME280;64561;44.018;10.144;2023-07-30T04:34:22;101270.16;;;23.83;74.35
75886;BME280;64561;44.018;10.144;2023-07-30T04:36:49;101270.88;;;23.88;75.11
75886;BME280;64561;44.018;10.144;2023-07-30T04:39:17;101279.59;;;23.88;75.33
75886;BME280;64561;44.018;10.144;2023-07-30T04:41:44;101274.34;;;23.88;76.09
75886;BME280;64561;44.018;10.144;2023-07-30T04:44:11;101277.88;;;23.89;75.27
75886;BME280;64561;44.018;10.144;2023-07-30T04:46:39;101270.81;;;23.91;75.42
75886;BME280;64561;44.018;10.144;2023-07-30T04:49:07;101270.00;;;23.89;75.64
75886;BME280;64561;44.018;10.144;2023-07-30T04:51:34;101279.59;;;23.88;75.00
75886;BME280;64561;44.018;10.144;2023-07-30T04:54:01;101273.63;;;23.83;74.89
75886;BME280;64561;44.018;10.144;2023-07-30T04:56:28;101284.25;;;23.77;74.18
75886;BME280;64561;44.018;10.144;2023-07-30T04:58:56;101286.69;;;23.83;74.11
75886;BME280;64561;44.018;10.144;2023-07-30T05:01:26;101276.50;;;23.72;74.12
75886;BME280;64561;44.018;10.144;2023-07-30T05:03:53;101290.19;;;23.82;73.96
75886;BME280;64561;44.018;10.144;2023-07-30T05:06:21;101274.66;;;23.76;74.36
75886;BME280;64561;44.018;10.144;2023-07-30T05:08:48;101272.94;;;23.75;74.66
75886;BME280;64561;44.018;10.144;2023-07-30T05:11:15;101288.47;;;23.81;74.42
75886;BME280;64561;44.018;10.144;2023-07-30T05:13:43;101294.63;;;23.80;74.52
75886;BME280;64561;44.018;10.144;2023-07-30T05:16:10;101286.84;;;23.77;74.75
75886;BME280;64561;44.018;10.144;2023-07-30T05:18:37;101285.94;;;23.78;74.82
75886;BME280;64561;44.018;10.144;2023-07-30T05:21:04;101290.25;;;23.81;74.76
75886;BME280;64561;44.018;10.144;2023-07-30T05:23:31;101292.00;;;23.80;74.54
75886;BME280;64561;44.018;10.144;2023-07-30T05:25:58;101295.31;;;23.87;74.77
75886;BME280;64561;44.018;10.144;2023-07-30T05:28:25;101287.44;;;23.88;75.55
75886;BME280;64561;44.018;10.144;2023-07-30T05:30:53;101281.28;;;23.91;75.92
75886;BME280;64561;44.018;10.144;2023-07-30T05:33:20;101271.81;;;23.85;75.99
75886;BME280;64561;44.018;10.144;2023-07-30T05:35:47;101288.25;;;23.92;75.83
75886;BME280;64561;44.018;10.144;2023-07-30T05:38:14;101273.50;;;23.88;75.80
75886;BME280;64561;44.018;10.144;2023-07-30T05:40:42;101280.34;;;23.93;75.99
75886;BME280;64561;44.018;10.144;2023-07-30T05:43:09;101295.94;;;23.98;76.44
75886;BME280;64561;44.018;10.144;2023-07-30T05:45:36;101293.34;;;23.96;75.73
75886;BME280;64561;44.018;10.144;2023-07-30T05:48:04;101276.19;;;23.86;74.82
75886;BME280;64561;44.018;10.144;2023-07-30T05:50:31;101302.97;;;23.94;74.68
75886;BME280;64561;44.018;10.144;2023-07-30T05:52:58;101297.88;;;23.90;74.59
75886;BME280;64561;44.018;10.144;2023-07-30T05:55:25;101308.94;;;24.01;74.40
75886;BME280;64561;44.018;10.144;2023-07-30T05:57:53;101303.66;;;24.03;74.61
75886;BME280;64561;44.018;10.144;2023-07-30T06:00:20;101308.72;;;24.09;75.21
75886;BME280;64561;44.018;10.144;2023-07-30T06:02:47;101319.97;;;24.12;74.92
75886;BME280;64561;44.018;10.144;2023-07-30T06:05:15;101311.28;;;24.12;75.17
75886;BME280;64561;44.018;10.144;2023-07-30T06:07:42;101319.88;;;24.17;74.59
75886;BME280;64561;44.018;10.144;2023-07-30T06:10:12;101331.09;;;24.22;74.70
75886;BME280;64561;44.018;10.144;2023-07-30T06:12:39;101318.19;;;24.14;74.97
75886;BME280;64561;44.018;10.144;2023-07-30T06:15:08;101319.91;;;24.15;74.94
75886;BME280;64561;44.018;10.144;2023-07-30T06:17:35;101336.13;;;24.30;75.12
75886;BME280;64561;44.018;10.144;2023-07-30T06:20:03;101336.03;;;24.33;75.07
75886;BME280;64561;44.018;10.144;2023-07-30T06:22:31;101332.38;;;24.40;74.32
75886;BME280;64561;44.018;10.144;2023-07-30T06:24:58;101321.00;;;24.41;74.26
75886;BME280;64561;44.018;10.144;2023-07-30T06:27:25;101323.59;;;24.44;73.86
75886;BME280;64561;44.018;10.144;2023-07-30T06:29:52;101322.59;;;24.48;73.91
75886;BME280;64561;44.018;10.144;2023-07-30T06:32:19;101319.81;;;24.54;73.78
75886;BME280;64561;44.018;10.144;2023-07-30T06:34:47;101329.25;;;24.61;73.30
75886;BME280;64561;44.018;10.144;2023-07-30T06:37:16;101324.88;;;24.62;73.72
75886;BME280;64561;44.018;10.144;2023-07-30T06:39:44;101338.78;;;24.64;74.18
75886;BME280;64561;44.018;10.144;2023-07-30T06:42:12;101342.25;;;24.64;74.52
75886;BME280;64561;44.018;10.144;2023-07-30T06:44:39;101344.72;;;24.69;74.70
75886;BME280;64561;44.018;10.144;2023-07-30T06:47:06;101337.81;;;24.67;74.72
75886;BME280;64561;44.018;10.144;2023-07-30T06:49:34;101342.09;;;24.71;75.36
75886;BME280;64561;44.018;10.144;2023-07-30T06:52:01;101340.16;;;24.77;75.63
75886;BME280;64561;44.018;10.144;2023-07-30T06:54:29;101335.69;;;24.81;75.03
75886;BME280;64561;44.018;10.144;2023-07-30T06:56:57;101326.91;;;24.82;75.11
75886;BME280;64561;44.018;10.144;2023-07-30T06:59:24;101326.03;;;24.83;75.07
75886;BME280;64561;44.018;10.144;2023-07-30T07:01:51;101332.78;;;24.92;74.85
75886;BME280;64561;44.018;10.144;2023-07-30T07:04:19;101324.03;;;24.93;74.10
75886;BME280;64561;44.018;10.144;2023-07-30T07:06:49;101332.63;;;24.98;74.06
75886;BME280;64561;44.018;10.144;2023-07-30T07:09:16;101329.16;;;24.97;74.04
75886;BME280;64561;44.018;10.144;2023-07-30T07:11:45;101329.09;;;24.99;73.08
75886;BME280;64561;44.018;10.144;2023-07-30T07:14:12;101333.31;;;25.04;73.65
75886;BME280;64561;44.018;10.144;2023-07-30T07:16:39;101341.91;;;25.09;73.11
75886;BME280;64561;44.018;10.144;2023-07-30T07:19:06;101336.50;;;25.16;72.77
75886;BME280;64561;44.018;10.144;2023-07-30T07:21:34;101346.06;;;25.18;72.82
75886;BME280;64561;44.018;10.144;2023-07-30T07:24:01;101340.94;;;25.14;72.20
75886;BME280;64561;44.018;10.144;2023-07-30T07:26:28;101344.31;;;25.17;72.62
75886;BME280;64561;44.018;10.144;2023-07-30T07:28:56;101343.34;;;25.21;72.38
75886;BME280;64561;44.018;10.144;2023-07-30T07:31:23;101343.94;;;25.31;72.06
75886;BME280;64561;44.018;10.144;2023-07-30T07:33:50;101350.06;;;25.30;72.31
75886;BME280;64561;44.018;10.144;2023-07-30T07:36:18;101348.16;;;25.35;72.72
75886;BME280;64561;44.018;10.144;2023-07-30T07:38:45;101348.94;;;25.39;72.47
75886;BME280;64561;44.018;10.144;2023-07-30T07:41:16;101347.13;;;25.41;72.19
75886;BME280;64561;44.018;10.144;2023-07-30T07:43:44;101345.25;;;25.46;72.38
75886;BME280;64561;44.018;10.144;2023-07-30T07:46:11;101344.38;;;25.45;72.91
75886;BME280;64561;44.018;10.144;2023-07-30T07:48:43;101331.88;;;25.53;72.48
75886;BME280;64561;44.018;10.144;2023-07-30T07:51:11;101328.59;;;25.47;71.58
75886;BME280;64561;44.018;10.144;2023-07-30T07:53:39;101339.56;;;25.60;71.46
75886;BME280;64561;44.018;10.144;2023-07-30T07:56:06;101342.09;;;25.63;71.26
75886;BME280;64561;44.018;10.144;2023-07-30T07:58:34;101336.00;;;25.62;71.42
75886;BME280;64561;44.018;10.144;2023-07-30T08:01:02;101340.28;;;25.65;71.31
75886;BME280;64561;44.018;10.144;2023-07-30T08:03:29;101342.63;;;25.74;71.32
75886;BME280;64561;44.018;10.144;2023-07-30T08:05:57;101348.53;;;25.81;70.22
75886;BME280;64561;44.018;10.144;2023-07-30T08:08:27;101346.75;;;25.81;70.50
75886;BME280;64561;44.018;10.144;2023-07-30T08:10:54;101349.44;;;25.80;70.64
75886;BME280;64561;44.018;10.144;2023-07-30T08:13:21;101346.81;;;25.80;70.46
75886;BME280;64561;44.018;10.144;2023-07-30T08:15:49;101337.13;;;25.83;70.09
75886;BME280;64561;44.018;10.144;2023-07-30T08:18:16;101334.38;;;25.88;68.71
75886;BME280;64561;44.018;10.144;2023-07-30T08:20:43;101340.41;;;25.90;69.23
75886;BME280;64561;44.018;10.144;2023-07-30T08:23:11;101341.41;;;25.86;69.50
75886;BME280;64561;44.018;10.144;2023-07-30T08:25:38;101339.81;;;25.82;71.23
75886;BME280;64561;44.018;10.144;2023-07-30T08:28:05;101340.66;;;25.82;70.04
75886;BME280;64561;44.018;10.144;2023-07-30T08:30:33;101335.41;;;25.81;68.42
75886;BME280;64561;44.018;10.144;2023-07-30T08:33:00;101333.56;;;25.86;67.54
75886;BME280;64561;44.018;10.144;2023-07-30T08:35:28;101330.94;;;25.86;68.60
75886;BME280;64561;44.018;10.144;2023-07-30T08:37:55;101333.66;;;25.83;68.32
75886;BME280;64561;44.018;10.144;2023-07-30T08:40:23;101352.53;;;25.94;68.12
75886;BME280;64561;44.018;10.144;2023-07-30T08:42:51;101353.00;;;26.07;68.95
75886;BME280;64561;44.018;10.144;2023-07-30T08:45:18;101344.09;;;26.11;66.11
75886;BME280;64561;44.018;10.144;2023-07-30T08:47:46;101339.38;;;26.22;65.86
75886;BME280;64561;44.018;10.144;2023-07-30T08:50:14;101340.00;;;26.30;65.71
75886;BME280;64561;44.018;10.144;2023-07-30T08:52:42;101339.59;;;26.41;65.25
75886;BME280;64561;44.018;10.144;2023-07-30T08:55:10;101344.66;;;26.47;65.22
75886;BME280;64561;44.018;10.144;2023-07-30T08:57:38;101339.34;;;26.49;64.87
75886;BME280;64561;44.018;10.144;2023-07-30T09:00:08;101335.06;;;26.46;63.84
75886;BME280;64561;44.018;10.144;2023-07-30T09:02:49;101334.78;;;26.55;63.37
75886;BME280;64561;44.018;10.144;2023-07-30T09:05:20;101330.28;;;26.59;64.05
75886;BME280;64561;44.018;10.144;2023-07-30T09:07:48;101335.16;;;26.70;65.15
75886;BME280;64561;44.018;10.144;2023-07-30T09:10:15;101332.31;;;26.76;64.13
75886;BME280;64561;44.018;10.144;2023-07-30T09:12:43;101336.44;;;26.83;64.38
75886;BME280;64561;44.018;10.144;2023-07-30T09:15:13;101322.34;;;26.85;63.97
75886;BME280;64561;44.018;10.144;2023-07-30T09:17:40;101321.59;;;26.82;64.94
75886;BME280;64561;44.018;10.144;2023-07-30T09:20:08;101312.06;;;26.79;65.36
75886;BME280;64561;44.018;10.144;2023-07-30T09:22:35;101304.28;;;26.76;65.78
75886;BME280;64561;44.018;10.144;2023-07-30T09:25:07;101308.78;;;26.73;65.13
75886;BME280;64561;44.018;10.144;2023-07-30T09:27:35;101314.97;;;26.72;65.95
75886;BME280;64561;44.018;10.144;2023-07-30T09:30:03;101317.53;;;26.73;66.10
75886;BME280;64561;44.018;10.144;2023-07-30T09:32:34;101317.53;;;26.73;66.00
75886;BME280;64561;44.018;10.144;2023-07-30T09:35:10;101311.41;;;26.73;66.68
75886;BME280;64561;44.018;10.144;2023-07-30T09:37:40;101305.31;;;26.72;65.94
75886;BME280;64561;44.018;10.144;2023-07-30T09:40:12;101298.28;;;26.73;65.86
75886;BME280;64561;44.018;10.144;2023-07-30T09:42:45;101301.41;;;26.84;65.76
75886;BME280;64561;44.018;10.144;2023-07-30T09:45:18;101306.31;;;26.93;64.93
75886;BME280;64561;44.018;10.144;2023-07-30T09:47:54;101305.22;;;26.99;65.34
75886;BME280;64561;44.018;10.144;2023-07-30T09:50:23;101306.63;;;27.07;64.44
75886;BME280;64561;44.018;10.144;2023-07-30T09:52:51;101306.47;;;27.12;64.16
75886;BME280;64561;44.018;10.144;2023-07-30T09:55:18;101308.16;;;27.15;63.56
75886;BME280;64561;44.018;10.144;2023-07-30T09:57:46;101313.56;;;27.10;64.83
75886;BME280;64561;44.018;10.144;2023-07-30T10:00:14;101310.06;;;27.09;64.00
75886;BME280;64561;44.018;10.144;2023-07-30T10:02:48;101307.78;;;27.00;64.04
75886;BME280;64561;44.018;10.144;2023-07-30T10:05:18;101313.19;;;26.96;65.25
75886;BME280;64561;44.018;10.144;2023-07-30T10:07:50;101311.56;;;26.93;63.93
75886;BME280;64561;44.018;10.144;2023-07-30T10:10:18;101308.16;;;26.89;64.36
75886;BME280;64561;44.018;10.144;2023-07-30T10:12:47;101305.44;;;26.92;65.25
75886;BME280;64561;44.018;10.144;2023-07-30T10:15:19;101305.31;;;26.96;64.69
75886;BME280;64561;44.018;10.144;2023-07-30T10:17:47;101306.75;;;27.04;64.95
75886;BME280;64561;44.018;10.144;2023-07-30T10:20:26;101315.16;;;27.14;65.23
75886;BME280;64561;44.018;10.144;2023-07-30T10:22:57;101304.88;;;27.08;65.32
75886;BME280;64561;44.018;10.144;2023-07-30T10:25:43;101309.59;;;26.98;66.04
75886;BME280;64561;44.018;10.144;2023-07-30T10:30:59;101312.53;;;26.90;68.11
75886;BME280;64561;44.018;10.144;2023-07-30T10:33:49;101317.81;;;26.89;68.12
75886;BME280;64561;44.018;10.144;2023-07-30T10:36:34;101308.13;;;26.91;67.30
75886;BME280;64561;44.018;10.144;2023-07-30T10:39:17;101306.34;;;26.91;68.62
75886;BME280;64561;44.018;10.144;2023-07-30T10:41:47;101314.19;;;26.93;68.90
75886;BME280;64561;44.018;10.144;2023-07-30T10:44:22;101315.03;;;26.94;68.82
75886;BME280;64561;44.018;10.144;2023-07-30T10:46:57;101307.09;;;26.95;68.44
75886;BME280;64561;44.018;10.144;2023-07-30T10:49:25;101311.50;;;26.95;67.71
75886;BME280;64561;44.018;10.144;2023-07-30T10:51:55;101322.75;;;26.98;68.54
75886;BME280;64561;44.018;10.144;2023-07-30T10:54:23;101320.19;;;26.97;69.39
75886;BME280;64561;44.018;10.144;2023-07-30T10:56:51;101318.41;;;26.97;68.86
75886;BME280;64561;44.018;10.144;2023-07-30T10:59:19;101324.19;;;27.07;69.58
75886;BME280;64561;44.018;10.144;2023-07-30T11:01:46;101328.31;;;27.14;70.18
75886;BME280;64561;44.018;10.144;2023-07-30T11:04:19;101329.19;;;27.15;69.96
75886;BME280;64561;44.018;10.144;2023-07-30T11:06:48;101324.88;;;27.12;68.41
75886;BME280;64561;44.018;10.144;2023-07-30T11:09:26;101323.50;;;27.02;67.92
75886;BME280;64561;44.018;10.144;2023-07-30T11:11:55;101314.59;;;27.06;69.59
75886;BME280;64561;44.018;10.144;2023-07-30T11:14:24;101317.91;;;27.11;67.92
75886;BME280;64561;44.018;10.144;2023-07-30T11:16:57;101314.00;;;27.23;68.72
75886;BME280;64561;44.018;10.144;2023-07-30T11:19:28;101312.59;;;27.36;67.58
75886;BME280;64561;44.018;10.144;2023-07-30T11:21:56;101297.94;;;27.52;66.29
75886;BME280;64561;44.018;10.144;2023-07-30T11:24:37;101303.84;;;27.59;66.38
75886;BME280;64561;44.018;10.144;2023-07-30T11:27:04;101299.47;;;27.58;67.40
75886;BME280;64561;44.018;10.144;2023-07-30T11:29:32;101295.13;;;27.57;67.18
75886;BME280;64561;44.018;10.144;2023-07-30T11:31:59;101295.75;;;27.64;64.19
75886;BME280;64561;44.018;10.144;2023-07-30T11:34:29;101299.31;;;27.63;64.97
75886;BME280;64561;44.018;10.144;2023-07-30T11:36:58;101304.31;;;27.69;65.01
75886;BME280;64561;44.018;10.144;2023-07-30T11:39:26;101303.50;;;27.67;66.38
75886;BME280;64561;44.018;10.144;2023-07-30T11:41:55;101302.59;;;27.68;66.00
75886;BME280;64561;44.018;10.144;2023-07-30T11:44:34;101310.47;;;27.68;65.85
75886;BME280;64561;44.018;10.144;2023-07-30T11:47:02;101313.09;;;27.68;64.77
75886;BME280;64561;44.018;10.144;2023-07-30T11:49:31;101313.31;;;27.63;65.36
75886;BME280;64561;44.018;10.144;2023-07-30T11:52:09;101312.44;;;27.63;65.52
75886;BME280;64561;44.018;10.144;2023-07-30T11:54:36;101311.53;;;27.64;65.35
75886;BME280;64561;44.018;10.144;2023-07-30T11:57:04;101313.91;;;27.70;64.79
75886;BME280;64561;44.018;10.144;2023-07-30T11:59:32;101311.78;;;27.79;64.87
75886;BME280;64561;44.018;10.144;2023-07-30T12:02:00;101312.81;;;27.75;65.18
75886;BME280;64561;44.018;10.144;2023-07-30T12:04:42;101303.34;;;27.71;65.21
75886;BME280;64561;44.018;10.144;2023-07-30T12:07:10;101311.13;;;27.74;66.31
75886;BME280;64561;44.018;10.144;2023-07-30T12:09:37;101313.09;;;27.68;67.46
75886;BME280;64561;44.018;10.144;2023-07-30T12:12:05;101312.34;;;27.66;66.46
75886;BME280;64561;44.018;10.144;2023-07-30T12:15:00;101312.75;;;27.55;66.71
75886;BME280;64561;44.018;10.144;2023-07-30T12:17:30;101311.28;;;27.48;67.21
75886;BME280;64561;44.018;10.144;2023-07-30T12:20:00;101304.38;;;27.45;66.84
75886;BME280;64561;44.018;10.144;2023-07-30T12:22:29;101308.88;;;27.42;67.03
75886;BME280;64561;44.018;10.144;2023-07-30T12:24:56;101305.78;;;27.54;68.53
75886;BME280;64561;44.018;10.144;2023-07-30T12:27:24;101319.72;;;27.56;69.41
75886;BME280;64561;44.018;10.144;2023-07-30T12:29:51;101315.97;;;27.62;69.08
75886;BME280;64561;44.018;10.144;2023-07-30T12:32:18;101314.63;;;27.73;69.32
75886;BME280;64561;44.018;10.144;2023-07-30T12:34:45;101319.50;;;27.84;68.86
75886;BME280;64561;44.018;10.144;2023-07-30T12:37:12;101318.03;;;27.99;69.07
75886;BME280;64561;44.018;10.144;2023-07-30T12:39:40;101309.81;;;28.07;68.86
75886;BME280;64561;44.018;10.144;2023-07-30T12:42:07;101305.34;;;28.09;68.99
75886;BME280;64561;44.018;10.144;2023-07-30T12:44:34;101305.44;;;28.07;70.24
75886;BME280;64561;44.018;10.144;2023-07-30T12:47:01;101295.75;;;28.08;67.46
75886;BME280;64561;44.018;10.144;2023-07-30T12:49:29;101297.66;;;28.04;67.69